Time;durP1;ratioP1;P1;durP2;ratioP2;P2;SDS_P1;SDS_P2;PMS_P1;PMS_P2;Temp;Humidity;BMP_temperature;BMP_pressure;BME280_temperature;BME280_humidity;BME280_pressure;Samples;Min_cycle;Max_cycle;Signal;HPM_P1;HPM_P2
2023/07/13 00:02:15;;;;;;;16.15;4.97;;;21.50;99.90;;;;;;5043913;28;20025;-83
2023/07/13 00:04:41;;;;;;;12.77;5.88;;;21.40;99.90;;;;;;5048432;28;20021;-83
2023/07/13 00:07:07;;;;;;;16.63;5.88;;;21.40;99.90;;;;;;5048130;28;20022;-83
2023/07/13 00:09:33;;;;;;;9.68;4.72;;;21.50;99.90;;;;;;5049951;28;20100;-82
2023/07/13 00:11:59;;;;;;;8.25;5.13;;;21.40;99.90;;;;;;5047985;28;20100;-83
2023/07/13 00:14:26;;;;;;;6.78;4.93;;;21.40;99.90;;;;;;5039149;28;20028;-82
2023/07/13 00:16:52;;;;;;;14.35;5.38;;;21.40;99.90;;;;;;5044265;28;20022;-82
2023/07/13 00:19:18;;;;;;;9.60;4.88;;;21.40;99.90;;;;;;5041797;28;20998;-81
2023/07/13 00:21:44;;;;;;;9.45;4.95;;;21.40;99.90;;;;;;5043768;28;20088;-80
2023/07/13 00:24:21;;;;;;;20.02;4.90;;;21.40;99.90;;;;;;5022496;28;20519;-80
2023/07/13 00:26:47;;;;;;;9.82;4.32;;;21.40;99.90;;;;;;5043990;28;20029;-80
2023/07/13 00:29:16;;;;;;;10.88;4.35;;;21.40;99.90;;;;;;5020733;28;20029;-79
2023/07/13 00:31:42;;;;;;;10.30;3.67;;;21.40;99.90;;;;;;5048907;28;20020;-79
2023/07/13 00:34:08;;;;;;;8.48;4.32;;;21.40;99.90;;;;;;5026295;28;20456;-79
2023/07/13 00:36:34;;;;;;;6.43;3.08;;;21.40;99.90;;;;;;5042474;28;20033;-79
2023/07/13 00:38:59;;;;;;;7.00;3.92;;;21.40;99.90;;;;;;5044209;28;20053;-78
2023/07/13 00:41:26;;;;;;;6.38;2.75;;;21.40;99.90;;;;;;5045840;28;20433;-78
2023/07/13 00:43:51;;;;;;;7.65;2.63;;;21.40;99.90;;;;;;5041679;28;20076;-78
2023/07/13 00:46:26;;;;;;;4.68;3.00;;;21.40;99.90;;;;;;5036818;28;20025;-78
2023/07/13 00:48:54;;;;;;;4.88;2.90;;;21.40;99.90;;;;;;5042119;28;20021;-79
2023/07/13 00:51:29;;;;;;;3.35;2.47;;;21.40;99.90;;;;;;5042012;28;20418;-78
2023/07/13 00:54:00;;;;;;;6.63;2.67;;;21.40;99.90;;;;;;5040776;28;20064;-79
2023/07/13 00:56:28;;;;;;;5.38;2.70;;;21.40;99.90;;;;;;5046791;28;20029;-79
2023/07/13 00:58:54;;;;;;;7.03;2.70;;;21.40;99.90;;;;;;5043694;28;20513;-79
2023/07/13 01:01:19;;;;;;;6.57;3.10;;;21.40;99.90;;;;;;5038862;28;20030;-79
2023/07/13 01:03:46;;;;;;;10.85;3.22;;;21.30;99.90;;;;;;5038992;28;20029;-79
2023/07/13 01:06:12;;;;;;;8.48;2.55;;;21.40;99.90;;;;;;5042999;28;20434;-79
2023/07/13 01:08:39;;;;;;;9.60;2.70;;;21.40;99.90;;;;;;5037487;28;20021;-79
2023/07/13 01:11:04;;;;;;;4.65;2.28;;;21.40;99.90;;;;;;5042843;28;20104;-79
2023/07/13 01:13:31;;;;;;;5.22;2.03;;;21.40;99.90;;;;;;5042043;28;20052;-79
2023/07/13 01:16:01;;;;;;;3.13;2.10;;;21.40;99.90;;;;;;5024369;28;20025;-79
2023/07/13 01:18:28;;;;;;;14.43;1.95;;;21.40;99.90;;;;;;5022046;28;20040;-79
2023/07/13 01:21:02;;;;;;;4.35;1.90;;;21.40;99.90;;;;;;5039035;28;20048;-79
2023/07/13 01:23:30;;;;;;;7.10;1.92;;;21.40;99.90;;;;;;5040171;28;20475;-79
2023/07/13 01:25:56;;;;;;;9.27;1.77;;;21.40;99.90;;;;;;5041606;28;20497;-79
2023/07/13 01:28:26;;;;;;;3.83;1.83;;;21.40;99.90;;;;;;5046456;28;20024;-79
2023/07/13 01:30:53;;;;;;;4.70;1.70;;;21.30;99.90;;;;;;5043934;28;20016;-79
2023/07/13 01:33:19;;;;;;;5.05;2.20;;;21.40;99.90;;;;;;5040882;28;20485;-79
2023/07/13 01:35:46;;;;;;;2.90;1.65;;;21.40;99.90;;;;;;5041860;28;20027;-79
2023/07/13 01:38:22;;;;;;;3.50;1.92;;;21.30;99.90;;;;;;5020598;28;20107;-79
2023/07/13 01:40:48;;;;;;;9.07;2.15;;;21.40;99.90;;;;;;5038901;28;20029;-79
2023/07/13 01:43:17;;;;;;;10.07;1.77;;;21.40;99.90;;;;;;5046483;28;20104;-80
2023/07/13 01:45:43;;;;;;;8.35;2.20;;;21.40;99.90;;;;;;5043706;28;20025;-80
2023/07/13 01:48:10;;;;;;;4.07;2.00;;;21.40;99.90;;;;;;5040678;28;20014;-80
2023/07/13 01:50:36;;;;;;;2.40;2.20;;;21.30;99.90;;;;;;5041159;28;20116;-80
2023/07/13 01:53:02;;;;;;;6.18;2.08;;;21.30;99.90;;;;;;5043667;28;20529;-80
2023/07/13 01:55:29;;;;;;;4.10;1.80;;;21.40;99.90;;;;;;5041827;28;20071;-80
2023/07/13 01:57:54;;;;;;;3.92;2.33;;;21.30;99.90;;;;;;5044100;28;20095;-80
2023/07/13 02:00:20;;;;;;;5.15;2.25;;;21.30;99.90;;;;;;5046944;28;20059;-80
2023/07/13 02:02:46;;;;;;;7.75;2.20;;;21.30;99.90;;;;;;5044724;28;20025;-80
2023/07/13 02:05:12;;;;;;;2.78;1.90;;;21.30;99.90;;;;;;5043473;28;20079;-80
2023/07/13 02:07:39;;;;;;;5.43;2.30;;;21.30;99.90;;;;;;5044400;28;20100;-80
2023/07/13 02:10:06;;;;;;;4.00;1.75;;;21.30;99.90;;;;;;5041887;28;20018;-80
2023/07/13 02:12:31;;;;;;;3.05;2.00;;;21.30;99.90;;;;;;5042153;28;20025;-80
2023/07/13 02:14:57;;;;;;;3.22;1.75;;;21.30;99.90;;;;;;5029715;28;20025;-80
2023/07/13 02:17:23;;;;;;;2.83;1.70;;;21.30;99.90;;;;;;5046536;28;20108;-80
2023/07/13 02:19:48;;;;;;;1.85;1.55;;;21.30;99.90;;;;;;5041903;28;20025;-80
2023/07/13 02:22:14;;;;;;;2.25;1.70;;;21.30;99.90;;;;;;5025528;28;20036;-80
2023/07/13 02:24:40;;;;;;;3.30;1.90;;;21.30;99.90;;;;;;5040980;28;20163;-80
2023/07/13 02:27:05;;;;;;;5.57;1.48;;;21.30;99.90;;;;;;5042299;28;20466;-80
2023/07/13 02:29:31;;;;;;;1.98;1.60;;;21.30;99.90;;;;;;5026159;28;20037;-81
2023/07/13 02:31:57;;;;;;;4.05;1.77;;;21.30;99.90;;;;;;5044231;28;20028;-80
2023/07/13 02:34:22;;;;;;;5.75;2.05;;;21.30;99.90;;;;;;5039075;28;20028;-80
2023/07/13 02:36:48;;;;;;;2.63;1.83;;;21.30;99.90;;;;;;5029840;28;20029;-80
2023/07/13 02:39:14;;;;;;;3.83;2.00;;;21.30;99.90;;;;;;5023879;28;20371;-80
2023/07/13 02:41:39;;;;;;;9.23;2.38;;;21.30;99.90;;;;;;5023154;28;20060;-81
2023/07/13 02:44:06;;;;;;;3.83;2.20;;;21.20;99.90;;;;;;5042438;28;20025;-81
2023/07/13 02:46:32;;;;;;;5.68;2.33;;;21.30;99.90;;;;;;5044616;28;20017;-81
2023/07/13 02:48:58;;;;;;;9.77;2.45;;;21.30;99.90;;;;;;5041910;28;20053;-80
2023/07/13 02:51:23;;;;;;;3.33;2.00;;;21.30;99.90;;;;;;5043459;28;20055;-80
2023/07/13 02:53:49;;;;;;;4.80;1.88;;;21.30;99.90;;;;;;5043677;28;20477;-80
2023/07/13 02:56:15;;;;;;;15.80;2.05;;;21.30;99.90;;;;;;5041860;28;20029;-81
2023/07/13 02:58:40;;;;;;;2.70;1.80;;;21.30;99.90;;;;;;5044421;28;20389;-80
2023/07/13 03:01:10;;;;;;;2.20;1.23;;;21.30;99.90;;;;;;5043574;28;20474;-81
2023/07/13 03:03:36;;;;;;;4.03;1.35;;;21.30;99.90;;;;;;5039724;28;20021;-81
2023/07/13 03:06:05;;;;;;;2.97;1.40;;;21.30;99.90;;;;;;5024124;28;20021;-81
2023/07/13 03:08:31;;;;;;;7.88;1.60;;;21.30;99.90;;;;;;5042664;28;20492;-81
2023/07/13 03:11:05;;;;;;;5.03;1.52;;;21.20;99.90;;;;;;5044626;28;20032;-81
2023/07/13 03:13:31;;;;;;;7.75;1.50;;;21.20;99.90;;;;;;5023049;28;20071;-81
2023/07/13 03:15:57;;;;;;;2.72;1.70;;;21.20;99.90;;;;;;5040274;28;20363;-81
2023/07/13 03:18:23;;;;;;;7.95;1.40;;;21.20;99.90;;;;;;5039571;28;20028;-81
2023/07/13 03:20:52;;;;;;;2.80;1.40;;;21.20;99.90;;;;;;5023379;28;20037;-81
2023/07/13 03:23:19;;;;;;;3.83;1.85;;;21.20;99.90;;;;;;5019263;28;20049;-81
2023/07/13 03:25:45;;;;;;;5.47;1.60;;;21.20;99.90;;;;;;5024399;28;20021;-81
2023/07/13 03:28:11;;;;;;;2.05;1.55;;;21.20;99.90;;;;;;5044115;28;20127;-82
2023/07/13 03:30:37;;;;;;;4.32;1.25;;;21.20;99.90;;;;;;5040958;28;20091;-81
2023/07/13 03:33:03;;;;;;;5.38;1.50;;;21.20;99.90;;;;;;5038511;28;20530;-81
2023/07/13 03:35:29;;;;;;;8.90;1.52;;;21.20;99.90;;;;;;5038786;28;20048;-81
2023/07/13 03:37:55;;;;;;;1.55;1.45;;;21.20;99.90;;;;;;5038452;28;20021;-82
2023/07/13 03:40:20;;;;;;;4.65;1.75;;;21.20;99.90;;;;;;5036647;28;20025;-81
2023/07/13 03:42:46;;;;;;;6.63;1.77;;;21.20;99.90;;;;;;5043134;28;20029;-81
2023/07/13 03:45:12;;;;;;;4.63;1.30;;;21.20;99.90;;;;;;5036976;28;20386;-81
2023/07/13 03:47:37;;;;;;;4.57;1.50;;;21.20;99.90;;;;;;5018432;28;20033;-81
2023/07/13 03:50:04;;;;;;;6.75;1.77;;;21.20;99.90;;;;;;5026330;28;20022;-81
2023/07/13 03:52:29;;;;;;;3.45;1.67;;;21.20;99.90;;;;;;5020671;28;20119;-81
2023/07/13 03:54:55;;;;;;;2.92;1.63;;;21.10;99.90;;;;;;5036408;28;20585;-81
2023/07/13 03:57:20;;;;;;;7.85;1.70;;;21.20;99.90;;;;;;5039799;28;20025;-81
2023/07/13 03:59:46;;;;;;;1.95;1.40;;;21.20;99.90;;;;;;5025922;28;20034;-81
2023/07/13 04:02:12;;;;;;;10.07;1.52;;;21.20;99.90;;;;;;5041541;28;20389;-81
2023/07/13 04:04:40;;;;;;;2.47;1.40;;;21.20;99.90;;;;;;5025353;28;20029;-81
2023/07/13 04:07:07;;;;;;;4.10;1.67;;;21.20;99.90;;;;;;5036990;28;20013;-81
2023/07/13 04:09:32;;;;;;;6.95;1.85;;;21.20;99.90;;;;;;5043602;28;20018;-82
2023/07/13 04:11:58;;;;;;;2.67;1.70;;;21.20;99.90;;;;;;5037619;28;20032;-81
2023/07/13 04:14:23;;;;;;;2.55;1.58;;;21.20;99.90;;;;;;5042698;28;20056;-81
2023/07/13 04:16:49;;;;;;;3.58;1.83;;;21.20;99.90;;;;;;5021104;28;20021;-81
2023/07/13 04:19:15;;;;;;;10.45;2.13;;;21.10;99.90;;;;;;5031764;28;20022;-82
2023/07/13 04:21:40;;;;;;;3.47;1.77;;;21.10;99.90;;;;;;5058014;28;20488;-82
2023/07/13 04:24:07;;;;;;;1.42;1.33;;;21.20;99.90;;;;;;5062606;28;20023;-81
2023/07/13 04:26:35;;;;;;;2.42;1.50;;;21.20;99.90;;;;;;5063760;28;20058;-82
2023/07/13 04:29:03;;;;;;;5.50;1.70;;;21.10;99.90;;;;;;5062730;28;20021;-82
2023/07/13 04:31:29;;;;;;;4.60;1.60;;;21.20;99.90;;;;;;5065189;28;20032;-82
2023/07/13 04:33:55;;;;;;;5.38;1.98;;;21.10;99.90;;;;;;5064924;28;20025;-81
2023/07/13 04:36:21;;;;;;;5.55;1.85;;;21.20;99.90;;;;;;5059473;28;20032;-82
2023/07/13 04:38:46;;;;;;;1.63;1.52;;;21.10;99.90;;;;;;5059825;28;20029;-82
2023/07/13 04:41:13;;;;;;;4.40;1.50;;;21.10;99.90;;;;;;5047423;28;20362;-81
2023/07/13 04:43:39;;;;;;;4.18;2.03;;;21.10;99.90;;;;;;5061186;28;20036;-82
2023/07/13 04:46:17;;;;;;;7.10;2.00;;;21.10;99.90;;;;;;5050253;28;20023;-82
2023/07/13 04:48:43;;;;;;;4.18;2.00;;;21.10;99.90;;;;;;5046074;28;20047;-82
2023/07/13 04:51:09;;;;;;;3.78;2.30;;;21.10;99.90;;;;;;5047607;28;20052;-82
2023/07/13 04:53:35;;;;;;;5.18;2.30;;;21.10;99.90;;;;;;5064054;28;20024;-82
2023/07/13 04:56:02;;;;;;;4.97;2.20;;;21.10;99.90;;;;;;5045149;28;20025;-82
2023/07/13 04:58:28;;;;;;;12.55;2.38;;;21.10;99.90;;;;;;5045133;28;20024;-83
2023/07/13 05:00:59;;;;;;;5.38;2.50;;;21.10;99.90;;;;;;5065055;28;20032;-83
2023/07/13 05:03:24;;;;;;;5.82;2.03;;;21.10;99.90;;;;;;5046483;28;20048;-83
2023/07/13 05:06:02;;;;;;;5.03;1.92;;;21.10;99.90;;;;;;5045678;28;20021;-82
2023/07/13 05:08:31;;;;;;;4.47;1.55;;;21.10;99.90;;;;;;5048525;28;20029;-85
2023/07/13 05:10:58;;;;;;;5.90;1.73;;;21.10;99.90;;;;;;5042693;28;20496;-80
2023/07/13 05:13:24;;;;;;;4.18;2.47;;;20.70;99.50;;;;;;5062531;28;20021;-80
2023/07/13 05:16:01;;;;;;;2.67;1.80;;;20.40;99.20;;;;;;5065749;28;20028;-81
2023/07/13 05:18:27;;;;;;;9.07;2.78;;;20.20;99.20;;;;;;5056337;28;20178;-81
2023/07/13 05:21:05;;;;;;;6.20;3.08;;;20.00;99.30;;;;;;5054900;28;20553;-81
2023/07/13 05:23:32;;;;;;;4.57;2.67;;;20.00;99.40;;;;;;5042046;28;20026;-80
2023/07/13 05:25:59;;;;;;;6.80;2.90;;;19.90;99.40;;;;;;5023437;28;20040;-80
2023/07/13 05:28:25;;;;;;;9.05;2.67;;;19.90;99.50;;;;;;5025013;28;20040;-80
2023/07/13 05:30:51;;;;;;;7.10;2.30;;;19.80;99.70;;;;;;5041753;28;20036;-81
2023/07/13 05:33:17;;;;;;;5.43;1.75;;;19.80;99.40;;;;;;5029472;28;20029;-81
2023/07/13 05:35:43;;;;;;;3.05;2.03;;;19.70;99.10;;;;;;5043060;28;20053;-81
2023/07/13 05:38:09;;;;;;;10.48;2.40;;;19.70;99.10;;;;;;5027363;28;20083;-81
2023/07/13 05:40:34;;;;;;;6.75;2.90;;;19.70;99.10;;;;;;5039410;28;20021;-80
2023/07/13 05:43:00;;;;;;;3.42;2.38;;;19.60;99.20;;;;;;5040469;28;20033;-81
2023/07/13 05:45:26;;;;;;;3.55;2.67;;;19.60;99.30;;;;;;5039709;28;20041;-81
2023/07/13 05:47:52;;;;;;;8.52;3.13;;;19.60;99.20;;;;;;5043106;28;20040;-81
2023/07/13 05:50:18;;;;;;;7.97;2.30;;;19.60;99.20;;;;;;5041674;28;20021;-81
2023/07/13 05:52:44;;;;;;;7.00;2.03;;;19.50;99.00;;;;;;5021718;28;20556;-81
2023/07/13 05:55:09;;;;;;;8.00;2.30;;;19.50;99.20;;;;;;5026517;28;20029;-81
2023/07/13 05:57:35;;;;;;;5.53;1.80;;;19.50;99.20;;;;;;5038197;28;20437;-81
2023/07/13 06:00:00;;;;;;;2.75;1.55;;;19.50;99.00;;;;;;5043774;28;20021;-81
2023/07/13 06:02:27;;;;;;;9.73;2.03;;;19.50;99.20;;;;;;5040669;28;20029;-81
2023/07/13 06:04:53;;;;;;;5.22;2.10;;;19.50;99.10;;;;;;5025923;28;20535;-82
2023/07/13 06:07:18;;;;;;;4.65;1.98;;;19.50;99.10;;;;;;5044636;28;20021;-81
2023/07/13 06:09:44;;;;;;;5.90;1.52;;;19.50;99.00;;;;;;5020694;28;20028;-82
2023/07/13 06:12:09;;;;;;;5.68;1.70;;;19.40;98.90;;;;;;5044073;28;20088;-82
2023/07/13 06:14:35;;;;;;;8.65;1.73;;;19.40;98.80;;;;;;5025152;28;20021;-82
2023/07/13 06:17:01;;;;;;;5.53;1.63;;;19.40;98.90;;;;;;5044972;28;20021;-82
2023/07/13 06:19:26;;;;;;;4.82;1.83;;;19.40;99.30;;;;;;5029157;28;20017;-82
2023/07/13 06:21:52;;;;;;;7.40;1.85;;;19.40;99.20;;;;;;5056068;28;20020;-83
2023/07/13 06:24:17;;;;;;;3.72;1.90;;;19.40;99.40;;;;;;5051090;28;20570;-83
2023/07/13 06:26:43;;;;;;;2.50;1.77;;;19.50;99.30;;;;;;5039576;28;20017;-82
2023/07/13 06:29:09;;;;;;;6.28;1.83;;;19.50;99.10;;;;;;5069024;28;20482;-82
2023/07/13 06:31:35;;;;;;;9.35;2.30;;;19.50;99.20;;;;;;5044519;28;20021;-83
2023/07/13 06:34:00;;;;;;;1.65;1.33;;;19.40;98.90;;;;;;5062977;28;20182;-83
2023/07/13 06:36:26;;;;;;;6.38;2.45;;;19.40;98.70;;;;;;5051619;28;20067;-82
2023/07/13 06:38:52;;;;;;;4.10;1.98;;;19.40;99.00;;;;;;5044284;28;20038;-83
2023/07/13 06:41:17;;;;;;;5.25;1.63;;;19.50;99.10;;;;;;5051029;28;20060;-82
2023/07/13 06:43:43;;;;;;;4.75;1.65;;;19.40;99.00;;;;;;5061916;28;20045;-83
2023/07/13 06:46:09;;;;;;;5.00;2.10;;;19.40;99.10;;;;;;5068320;28;20037;-83
2023/07/13 06:48:35;;;;;;;6.80;2.03;;;19.50;99.00;;;;;;5055376;28;20029;-83
2023/07/13 06:51:02;;;;;;;4.88;3.05;;;19.50;99.10;;;;;;5041369;28;20567;-82
2023/07/13 06:53:28;;;;;;;8.13;2.05;;;19.50;99.40;;;;;;5057038;28;20029;-83
2023/07/13 06:55:54;;;;;;;4.78;2.10;;;19.50;99.20;;;;;;5059089;28;20094;-83
2023/07/13 06:58:20;;;;;;;3.50;1.70;;;19.50;99.10;;;;;;5050127;28;20385;-83
2023/07/13 07:00:46;;;;;;;3.78;2.33;;;19.60;99.40;;;;;;5060545;28;20508;-83
2023/07/13 07:03:12;;;;;;;2.15;1.55;;;19.60;99.40;;;;;;5055960;28;20048;-82
2023/07/13 07:05:38;;;;;;;3.60;1.45;;;19.60;99.20;;;;;;5064304;28;20553;-82
2023/07/13 07:08:04;;;;;;;6.85;2.08;;;19.60;98.80;;;;;;5038904;28;20116;-82
2023/07/13 07:10:33;;;;;;;6.53;1.90;;;19.60;99.00;;;;;;5049641;28;20028;-82
2023/07/13 07:12:59;;;;;;;7.95;1.92;;;19.70;99.20;;;;;;5047441;28;20069;-82
2023/07/13 07:15:25;;;;;;;6.30;2.15;;;19.60;99.00;;;;;;5048368;28;20033;-82
2023/07/13 07:17:51;;;;;;;3.70;1.80;;;19.70;98.50;;;;;;5049532;28;20493;-82
2023/07/13 07:20:17;;;;;;;3.80;1.67;;;19.70;98.70;;;;;;5060559;28;20188;-83
2023/07/13 07:22:42;;;;;;;6.40;2.15;;;19.60;98.30;;;;;;5036335;28;20025;-82
2023/07/13 07:25:08;;;;;;;4.32;1.77;;;19.60;97.40;;;;;;5020509;28;20108;-82
2023/07/13 07:27:34;;;;;;;3.08;1.60;;;19.70;97.40;;;;;;5035261;28;20025;-82
2023/07/13 07:30:00;;;;;;;2.55;1.90;;;19.60;97.30;;;;;;5029421;28;20721;-83
2023/07/13 07:32:29;;;;;;;1.65;1.50;;;19.60;97.50;;;;;;5031327;28;20119;-83
2023/07/13 07:34:54;;;;;;;6.53;1.80;;;19.70;97.70;;;;;;5028344;28;20055;-82
2023/07/13 07:37:20;;;;;;;1.98;1.70;;;19.60;97.80;;;;;;5026580;28;20053;-82
2023/07/13 07:39:45;;;;;;;6.32;1.67;;;19.70;97.60;;;;;;5045303;28;20038;-82
2023/07/13 07:42:12;;;;;;;5.43;1.90;;;19.70;97.00;;;;;;5025573;28;20040;-82
2023/07/13 07:44:40;;;;;;;2.65;1.83;;;19.70;97.80;;;;;;5035048;28;20024;-83
2023/07/13 07:47:06;;;;;;;5.78;1.92;;;19.80;97.70;;;;;;5048321;28;20020;-83
2023/07/13 07:49:31;;;;;;;6.15;1.70;;;19.80;97.40;;;;;;5033951;28;20040;-82
2023/07/13 07:51:57;;;;;;;4.10;1.70;;;19.90;97.90;;;;;;5046966;28;20055;-83
2023/07/13 07:54:23;;;;;;;4.60;2.00;;;19.90;97.30;;;;;;5048973;28;20043;-83
2023/07/13 07:56:48;;;;;;;4.72;1.85;;;19.90;97.10;;;;;;5027301;28;20405;-83
2023/07/13 07:59:14;;;;;;;4.55;1.88;;;19.80;96.90;;;;;;5031934;28;20040;-82
2023/07/13 08:01:40;;;;;;;6.38;1.90;;;19.80;97.40;;;;;;5032988;28;20143;-82
2023/07/13 08:04:05;;;;;;;3.33;1.70;;;19.90;97.60;;;;;;5027299;28;20029;-83
2023/07/13 08:06:34;;;;;;;5.90;1.67;;;19.80;97.70;;;;;;5033650;28;20401;-82
2023/07/13 08:09:01;;;;;;;7.70;1.40;;;19.90;97.80;;;;;;5046474;28;20030;-82
2023/07/13 08:11:26;;;;;;;2.83;1.60;;;19.90;97.10;;;;;;5044996;28;20020;-82
2023/07/13 08:13:52;;;;;;;4.78;1.67;;;19.90;97.10;;;;;;5048643;28;20103;-81
2023/07/13 08:16:18;;;;;;;11.13;1.73;;;19.80;96.80;;;;;;5047205;28;20413;-82
2023/07/13 08:18:43;;;;;;;11.82;1.95;;;19.80;97.00;;;;;;5047739;28;20043;-87
2023/07/13 08:21:09;;;;;;;10.07;1.90;;;19.80;97.20;;;;;;5040004;28;20040;-85
2023/07/13 08:23:35;;;;;;;2.45;1.73;;;19.90;97.20;;;;;;5054609;28;20028;-83
2023/07/13 08:26:02;;;;;;;6.85;1.90;;;19.90;97.10;;;;;;5069572;28;20016;-85
2023/07/13 08:28:29;;;;;;;4.15;1.77;;;20.00;97.10;;;;;;5068380;28;20025;-84
2023/07/13 08:30:54;;;;;;;5.75;2.20;;;20.00;96.50;;;;;;5045528;28;20029;-83
2023/07/13 08:33:23;;;;;;;3.15;1.80;;;20.00;96.50;;;;;;5046525;28;20028;-83
2023/07/13 08:35:49;;;;;;;4.88;1.73;;;19.90;96.30;;;;;;5064283;28;20072;-83
2023/07/13 08:38:16;;;;;;;3.55;1.38;;;19.90;96.00;;;;;;5045786;28;20418;-83
2023/07/13 08:40:43;;;;;;;2.83;1.77;;;19.80;95.80;;;;;;5044291;28;20128;-82
2023/07/13 08:43:16;;;;;;;5.28;1.80;;;19.90;95.70;;;;;;5049831;28;20029;-82
2023/07/13 08:45:57;;;;;;;6.97;1.48;;;19.90;96.00;;;;;;5040802;28;20893;-82
2023/07/13 08:48:25;;;;;;;;;;;19.90;96.40;;;;;;5047206;28;20035;-82
2023/07/13 08:51:13;;;;;;;3.30;1.85;;;19.90;96.30;;;;;;5067956;28;20011;-82
2023/07/13 08:54:04;;;;;;;1.70;1.48;;;19.80;96.70;;;;;;5047460;28;20095;-82
2023/07/13 08:56:31;;;;;;;5.68;1.98;;;19.80;96.10;;;;;;5056390;28;20043;-83
2023/07/13 08:59:11;;;;;;;5.35;2.40;;;19.90;96.10;;;;;;5071074;28;20094;-82
2023/07/13 09:02:14;;;;;;;8.32;2.30;;;19.80;95.40;;;;;;5046243;28;20421;-82
2023/07/13 09:04:48;;;;;;;4.03;2.13;;;19.90;96.00;;;;;;5064931;28;20044;-82
2023/07/13 09:07:51;;;;;;;4.50;1.98;;;19.90;95.40;;;;;;5045244;28;20035;-83
2023/07/13 09:10:24;;;;;;;5.45;1.63;;;19.90;95.80;;;;;;5063385;28;20550;-82
2023/07/13 09:13:27;;;;;;;8.48;2.13;;;20.00;95.80;;;;;;5038195;28;20032;-83
2023/07/13 09:15:53;;;;;;;3.28;1.63;;;19.90;95.80;;;;;;5066087;28;20020;-84
2023/07/13 09:18:32;;;;;;;3.67;1.63;;;20.00;95.00;;;;;;5044264;28;20450;-82
2023/07/13 09:21:02;;;;;;;3.00;1.50;;;20.10;94.80;;;;;;5042525;28;20032;-84
2023/07/13 09:23:29;;;;;;;;;;;20.10;94.80;;;;;;5051256;28;20029;-83
2023/07/13 09:26:20;;;;;;;4.00;1.50;;;20.10;95.00;;;;;;5044217;28;20339;-82
2023/07/13 09:28:51;;;;;;;6.53;1.52;;;20.10;95.20;;;;;;5053349;28;20035;-82
2023/07/13 09:31:34;;;;;;;9.98;2.17;;;20.00;94.70;;;;;;5047275;28;20366;-84
2023/07/13 09:34:00;;;;;;;2.30;1.45;;;20.00;94.50;;;;;;5043372;28;20367;-83
2023/07/13 09:36:30;;;;;;;8.95;2.00;;;20.00;93.50;;;;;;5040809;28;20459;-82
2023/07/13 09:39:07;;;;;;;7.20;1.25;;;20.00;93.80;;;;;;5035502;28;20036;-82
2023/07/13 09:41:38;;;;;;;2.03;1.40;;;20.00;93.50;;;;;;5036997;28;20426;-83
2023/07/13 09:44:14;;;;;;;4.53;1.50;;;20.10;94.00;;;;;;5053483;28;20029;-83
2023/07/13 09:46:45;;;;;;;8.75;1.55;;;20.10;93.90;;;;;;5049591;28;20798;-83
2023/07/13 09:49:11;;;;;;;3.10;1.52;;;20.10;93.90;;;;;;5043241;28;20096;-83
2023/07/13 09:51:44;;;;;;;4.55;1.50;;;20.20;94.00;;;;;;5046195;28;20101;-85
2023/07/13 09:54:24;;;;;;;8.20;1.83;;;20.10;93.90;;;;;;5037428;28;20039;-83
2023/07/13 09:57:00;;;;;;;8.65;1.55;;;20.10;93.60;;;;;;5040575;28;20028;-82
2023/07/13 09:59:39;;;;;;;3.58;1.70;;;20.10;93.70;;;;;;5051993;28;20044;-81
2023/07/13 10:02:23;;;;;;;4.40;1.77;;;20.10;94.20;;;;;;5045323;28;20548;-83
2023/07/13 10:05:16;;;;;;;6.45;1.88;;;20.20;92.90;;;;;;5044839;28;20526;-83
2023/07/13 10:07:45;;;;;;;1.67;1.25;;;20.20;93.20;;;;;;5045400;28;20029;-84
2023/07/13 10:10:22;;;;;;;3.92;1.77;;;20.30;93.20;;;;;;5044422;28;20021;-82
2023/07/13 10:12:49;;;;;;;3.15;1.58;;;20.30;93.10;;;;;;5045842;28;20079;-83
2023/07/13 10:15:19;;;;;;;3.83;1.42;;;20.30;93.30;;;;;;5047736;28;20059;-83
2023/07/13 10:17:46;;;;;;;2.45;1.63;;;20.30;93.20;;;;;;5048789;28;20074;-81
2023/07/13 10:20:14;;;;;;;3.45;1.90;;;20.40;93.10;;;;;;5038832;28;20044;-82
2023/07/13 10:22:45;;;;;;;8.70;1.90;;;20.40;93.30;;;;;;5021479;28;20032;-82
2023/07/13 10:25:38;;;;;;;6.60;1.42;;;20.40;93.50;;;;;;5022985;28;20431;-81
2023/07/13 10:28:34;;;;;;;3.80;1.60;;;20.40;93.30;;;;;;5035848;28;20033;-83
2023/07/13 10:31:02;;;;;;;5.63;1.80;;;20.40;92.80;;;;;;5039243;28;20017;-84
2023/07/13 10:33:28;;;;;;;4.28;1.60;;;20.40;92.90;;;;;;5020123;28;20044;-82
2023/07/13 10:36:20;;;;;;;3.15;1.48;;;20.50;92.80;;;;;;5041717;28;20017;-82
2023/07/13 10:38:48;;;;;;;5.43;1.75;;;20.60;93.60;;;;;;5038880;28;20049;-82
2023/07/13 10:41:19;;;;;;;3.40;1.35;;;20.60;94.80;;;;;;5019556;28;20029;-82
2023/07/13 10:43:50;;;;;;;8.82;2.28;;;20.60;93.20;;;;;;5044438;28;20052;-81
2023/07/13 10:46:19;;;;;;;1.45;1.35;;;20.60;93.90;;;;;;5023300;28;20185;-82
2023/07/13 10:48:51;;;;;;;5.05;2.30;;;20.50;93.90;;;;;;5028238;28;20492;-81
2023/07/13 10:51:20;;;;;;;2.58;1.40;;;20.60;93.40;;;;;;5028435;28;20022;-81
2023/07/13 10:53:46;;;;;;;10.63;2.00;;;20.50;93.60;;;;;;5042176;28;20017;-80
2023/07/13 10:56:28;;;;;;;5.00;1.63;;;20.50;93.30;;;;;;5021759;28;20028;-81
2023/07/13 10:59:09;;;;;;;8.25;1.80;;;20.60;93.60;;;;;;5044064;28;20031;-81
2023/07/13 11:01:52;;;;;;;4.93;1.90;;;20.70;93.40;;;;;;5041502;28;20033;-82
2023/07/13 11:04:20;;;;;;;7.38;1.85;;;20.80;92.80;;;;;;5024929;28;20168;-82
2023/07/13 11:06:49;;;;;;;6.30;1.73;;;20.90;92.50;;;;;;5021644;28;20017;-81
2023/07/13 11:09:34;;;;;;;3.53;1.67;;;21.00;92.70;;;;;;5042167;28;20073;-82
2023/07/13 11:12:01;;;;;;;3.25;1.60;;;20.90;91.80;;;;;;5039236;28;20021;-81
2023/07/13 11:14:41;;;;;;;6.15;1.95;;;20.90;91.50;;;;;;5025271;28;20093;-82
2023/07/13 11:17:33;;;;;;;2.47;1.40;;;20.90;91.60;;;;;;5041998;28;20033;-82
2023/07/13 11:20:22;;;;;;;2.03;1.52;;;20.90;90.60;;;;;;5037438;28;20048;-81
2023/07/13 11:23:08;;;;;;;4.93;1.88;;;21.00;91.20;;;;;;5041837;28;20017;-81
2023/07/13 11:25:37;;;;;;;3.97;1.48;;;20.90;91.00;;;;;;5043487;28;20087;-80
2023/07/13 11:28:12;;;;;;;5.38;1.52;;;20.90;91.80;;;;;;5038095;28;20366;-81
2023/07/13 11:30:48;;;;;;;3.17;1.52;;;20.90;91.60;;;;;;5040036;28;20020;-81
2023/07/13 11:33:20;;;;;;;2.05;1.38;;;20.90;91.40;;;;;;5043308;28;20024;-80
2023/07/13 11:36:01;;;;;;;2.80;1.17;;;20.90;91.40;;;;;;5040272;28;20032;-82
2023/07/13 11:38:49;;;;;;;3.53;1.40;;;21.00;91.40;;;;;;5024525;28;20025;-82
2023/07/13 11:41:26;;;;;;;4.60;1.45;;;21.00;91.70;;;;;;5026888;28;20486;-81
2023/07/13 11:44:16;;;;;;;6.68;1.70;;;20.90;92.10;;;;;;5042404;28;20469;-82
2023/07/13 11:46:51;;;;;;;4.72;2.30;;;21.00;91.40;;;;;;5038976;28;20736;-80
2023/07/13 11:49:19;;;;;;;7.25;2.63;;;21.10;90.40;;;;;;5041420;28;20048;-80
2023/07/13 11:51:46;;;;;;;7.13;1.75;;;21.20;90.60;;;;;;5043577;28;20053;-81
2023/07/13 11:54:24;;;;;;;3.72;1.85;;;21.10;90.70;;;;;;5022434;28;20071;-81
2023/07/13 11:56:50;;;;;;;3.58;1.67;;;21.10;90.90;;;;;;5040693;28;20025;-82
2023/07/13 11:59:16;;;;;;;3.72;1.83;;;21.10;90.70;;;;;;5027615;28;20029;-81
2023/07/13 12:01:53;;;;;;;2.72;1.90;;;21.10;90.00;;;;;;5042156;28;20535;-81
2023/07/13 12:04:31;;;;;;;5.68;1.50;;;21.20;90.30;;;;;;5040013;28;20079;-81
2023/07/13 12:07:17;;;;;;;2.30;1.33;;;21.20;90.20;;;;;;5039901;28;20508;-81
2023/07/13 12:09:43;;;;;;;4.10;1.17;;;21.20;90.00;;;;;;5024505;28;20117;-81
2023/07/13 12:12:12;;;;;;;3.05;1.20;;;21.20;87.10;;;;;;5040747;28;20083;-81
2023/07/13 12:14:38;;;;;;;4.65;1.55;;;21.10;89.80;;;;;;5020077;28;20108;-81
2023/07/13 12:17:12;;;;;;;5.28;1.25;;;21.00;88.10;;;;;;5040411;28;20273;-81
2023/07/13 12:19:41;;;;;;;9.00;2.08;;;21.00;88.00;;;;;;5038795;28;20489;-80
2023/07/13 12:22:11;;;;;;;6.50;1.75;;;21.00;88.30;;;;;;5042083;28;20477;-81
2023/07/13 12:24:38;;;;;;;8.68;1.38;;;21.00;89.20;;;;;;5044489;28;20036;-78
2023/07/13 12:27:05;;;;;;;3.05;1.10;;;21.00;88.50;;;;;;5045586;28;20025;-82
2023/07/13 12:29:32;;;;;;;7.95;1.40;;;21.10;86.40;;;;;;5042507;28;20083;-82
2023/07/13 12:31:59;;;;;;;3.53;1.15;;;21.20;83.10;;;;;;5041708;28;20052;-81
2023/07/13 12:34:26;;;;;;;11.77;1.58;;;21.20;84.70;;;;;;5043625;28;20070;-82
2023/07/13 12:36:54;;;;;;;4.68;1.10;;;21.20;84.50;;;;;;5038656;28;20115;-80
2023/07/13 12:39:21;;;;;;;6.30;1.70;;;21.20;83.60;;;;;;5038419;28;20021;-80
2023/07/13 12:41:49;;;;;;;1.40;1.30;;;21.30;84.50;;;;;;5040374;28;20041;-80
2023/07/13 12:44:18;;;;;;;4.18;1.50;;;21.40;83.80;;;;;;5028323;28;20618;-81
2023/07/13 12:47:10;;;;;;;4.00;1.30;;;21.50;86.30;;;;;;5038038;28;20025;-81
2023/07/13 12:49:42;;;;;;;5.45;1.30;;;21.60;84.20;;;;;;5041563;28;20018;-82
2023/07/13 12:52:16;;;;;;;4.65;1.48;;;21.50;84.20;;;;;;5029996;28;20021;-81
2023/07/13 12:54:42;;;;;;;3.67;1.30;;;21.50;84.70;;;;;;5042648;28;20109;-80
2023/07/13 12:57:16;;;;;;;1.95;1.48;;;21.50;85.50;;;;;;5029885;28;20032;-82